Time;durP1;ratioP1;P1;durP2;ratioP2;P2;SDS_P1;SDS_P2;PMS_P1;PMS_P2;Temp;Humidity;BMP_temperature;BMP_pressure;BME280_temperature;BME280_humidity;BME280_pressure;Samples;Min_cycle;Max_cycle;Signal;HPM_P1;HPM_P2
2020/12/26 00:01:42;;;;;;;9.85;4.88;;;;;;;-0.66;90.85;98019.09;4956028;28;20507;-76
2020/12/26 00:04:08;;;;;;;10.70;5.07;;;;;;;-0.57;90.62;98012.25;4904851;29;20035;-76
2020/12/26 00:06:34;;;;;;;12.73;5.53;;;;;;;-0.51;89.88;98018.53;4940252;29;20337;-76
2020/12/26 00:09:04;;;;;;;14.48;5.40;;;;;;;-0.53;90.63;98010.19;4941739;29;20047;-76
2020/12/26 00:11:30;;;;;;;11.07;4.72;;;;;;;-0.46;89.97;98034.25;4930531;29;20031;-76
2020/12/26 00:13:55;;;;;;;10.35;4.78;;;;;;;-0.47;90.60;98035.97;4939920;29;20101;-76
2020/12/26 00:16:21;;;;;;;10.23;5.05;;;;;;;-0.43;90.10;98037.28;4943688;29;20382;-76
2020/12/26 00:18:47;;;;;;;10.50;4.68;;;;;;;-0.34;89.33;98030.44;4943263;29;20450;-76
2020/12/26 00:21:15;;;;;;;10.95;5.40;;;;;;;-0.21;89.33;98041.06;4932283;29;20039;-76
2020/12/26 00:23:41;;;;;;;9.07;4.80;;;;;;;-0.28;89.08;98040.06;4919981;29;20533;-76
2020/12/26 00:26:07;;;;;;;10.45;5.35;;;;;;;-0.45;88.59;98038.38;4924880;29;20122;-76
2020/12/26 00:28:34;;;;;;;10.27;4.93;;;;;;;-0.60;88.83;98046.63;4925481;29;20039;-76
2020/12/26 00:31:01;;;;;;;8.38;4.75;;;;;;;-0.69;89.32;98042.41;4950570;28;20028;-76
2020/12/26 00:33:27;;;;;;;9.77;4.40;;;;;;;-0.83;90.19;98040.41;4928524;29;20039;-76
2020/12/26 00:35:53;;;;;;;9.00;3.97;;;;;;;-0.89;90.11;98035.88;4948565;29;20058;-76
2020/12/26 00:38:18;;;;;;;8.52;3.80;;;;;;;-0.92;90.01;98031.88;4942799;29;20190;-76
2020/12/26 00:40:44;;;;;;;10.35;4.88;;;;;;;-0.95;91.01;98039.84;4926463;29;20399;-76
2020/12/26 00:43:10;;;;;;;12.25;5.25;;;;;;;-1.01;90.73;98038.69;4944243;29;20043;-76
2020/12/26 00:45:36;;;;;;;11.98;5.10;;;;;;;-0.98;90.94;98038.41;4930766;29;20042;-76
2020/12/26 00:48:02;;;;;;;10.13;4.63;;;;;;;-1.01;91.04;98031.03;4943236;29;20043;-76
2020/12/26 00:50:28;;;;;;;11.82;4.97;;;;;;;-0.84;91.28;98041.34;4960532;28;20494;-76
2020/12/26 00:52:54;;;;;;;13.70;5.25;;;;;;;-0.83;91.13;98035.28;4944262;29;20035;-76
2020/12/26 00:55:20;;;;;;;9.10;4.65;;;;;;;-0.81;91.68;98039.28;4946600;29;20036;-76
2020/12/26 00:57:45;;;;;;;13.52;5.85;;;;;;;-0.81;91.03;98034.19;4943154;29;20538;-76
2020/12/26 01:00:11;;;;;;;9.45;4.75;;;;;;;-0.79;91.05;98047.63;4946072;29;20090;-76
2020/12/26 01:02:39;;;;;;;12.38;5.43;;;;;;;-0.76;90.46;98051.63;4940446;29;20042;-76
2020/12/26 01:05:05;;;;;;;13.18;5.20;;;;;;;-0.68;89.90;98046.56;4946294;29;20485;-76
2020/12/26 01:07:30;;;;;;;10.38;5.03;;;;;;;-0.73;90.60;98036.00;4946788;29;20265;-76
2020/12/26 01:09:57;;;;;;;8.85;4.72;;;;;;;-0.64;90.10;98042.75;4958201;28;20042;-76
2020/12/26 01:12:25;;;;;;;10.75;4.95;;;;;;;-0.75;90.07;98043.03;4945562;28;20531;-76
2020/12/26 01:14:50;;;;;;;10.70;4.97;;;;;;;-0.81;90.28;98039.28;4928753;29;20103;-76
2020/12/26 01:17:16;;;;;;;9.75;5.25;;;;;;;-0.86;90.57;98040.72;4943570;28;20566;-76
2020/12/26 01:19:41;;;;;;;7.63;4.03;;;;;;;-0.80;90.22;98042.66;4965573;28;20390;-76
2020/12/26 01:22:07;;;;;;;9.05;4.95;;;;;;;-0.77;89.75;98050.06;4963714;28;20126;-76
2020/12/26 01:24:33;;;;;;;8.57;4.18;;;;;;;-0.79;89.52;98054.47;4937346;29;20039;-76
2020/12/26 01:26:59;;;;;;;11.32;4.88;;;;;;;-0.99;90.25;98061.56;4949393;29;20086;-76
2020/12/26 01:29:25;;;;;;;9.95;4.40;;;;;;;-1.03;90.25;98068.72;4957840;28;20093;-76
2020/12/26 01:31:52;;;;;;;8.80;3.88;;;;;;;-1.23;90.54;98074.94;4939737;29;20135;-76
2020/12/26 01:34:19;;;;;;;9.50;4.95;;;;;;;-1.42;90.26;98069.03;4926454;29;20031;-75
2020/12/26 01:36:51;;;;;;;10.88;4.85;;;;;;;-1.42;91.50;98076.69;4944309;29;20241;-76
2020/12/26 01:39:18;;;;;;;9.05;4.30;;;;;;;-1.36;90.65;98080.41;4944037;29;20042;-76
2020/12/26 01:41:51;;;;;;;9.57;4.95;;;;;;;-1.46;90.87;98077.13;4944770;28;20036;-76
2020/12/26 01:44:17;;;;;;;7.55;3.83;;;;;;;-1.50;91.31;98074.06;4947157;29;20086;-76
2020/12/26 01:46:45;;;;;;;12.35;4.93;;;;;;;-1.57;91.43;98078.13;4926779;29;20352;-76
2020/12/26 01:49:12;;;;;;;10.18;5.07;;;;;;;-1.66;92.21;98071.31;4928659;29;20468;-76
2020/12/26 01:51:39;;;;;;;8.55;4.55;;;;;;;-1.67;91.66;98069.75;4929274;29;20047;-76
2020/12/26 01:54:05;;;;;;;9.90;4.00;;;;;;;-1.71;91.36;98062.34;4935979;29;20059;-76
2020/12/26 01:56:31;;;;;;;9.80;4.60;;;;;;;-1.73;91.67;98079.56;4914685;29;20059;-76
2020/12/26 01:58:56;;;;;;;11.23;4.47;;;;;;;-1.70;90.60;98079.28;4938909;29;20667;-75
2020/12/26 02:01:51;;;;;;;12.32;5.10;;;;;;;-1.71;91.65;98087.09;4935994;29;20035;-76
2020/12/26 02:04:17;;;;;;;8.27;4.38;;;;;;;-1.72;90.75;98086.28;4890704;29;20048;-76
2020/12/26 02:06:43;;;;;;;10.00;4.95;;;;;;;-1.77;91.50;98080.00;4909893;29;20054;-76
2020/12/26 02:09:13;;;;;;;9.80;4.72;;;;;;;-1.76;91.78;98087.50;4958118;28;20086;-76
2020/12/26 02:11:40;;;;;;;8.02;4.63;;;;;;;-1.74;90.63;98077.97;4926989;29;20492;-76
2020/12/26 02:14:07;;;;;;;10.10;4.70;;;;;;;-1.62;90.36;98082.88;4967323;28;20462;-76
2020/12/26 02:16:46;;;;;;;10.15;4.90;;;;;;;-1.60;90.78;98084.31;4949736;29;20257;-76
2020/12/26 02:19:13;;;;;;;8.60;4.70;;;;;;;-1.57;89.33;98086.59;4960057;28;20039;-76
2020/12/26 02:21:40;;;;;;;8.68;4.40;;;;;;;-1.61;90.44;98087.84;4955447;28;20042;-76
2020/12/26 02:24:07;;;;;;;8.68;3.97;;;;;;;-1.72;90.70;98096.47;4929384;29;20031;-76
2020/12/26 02:26:32;;;;;;;7.95;4.35;;;;;;;-1.84;90.81;98094.28;4940889;29;20031;-76
2020/12/26 02:28:58;;;;;;;5.47;3.40;;;;;;;-1.85;91.39;98097.78;4930174;28;20101;-76
2020/12/26 02:31:25;;;;;;;8.82;4.45;;;;;;;-1.75;91.27;98099.34;4951742;28;20065;-76
2020/12/26 02:33:50;;;;;;;9.50;4.32;;;;;;;-1.64;91.49;98092.44;4922288;29;20053;-76
2020/12/26 02:36:17;;;;;;;7.80;4.20;;;;;;;-1.71;91.36;98102.41;4925839;29;20148;-76
2020/12/26 02:38:42;;;;;;;8.57;4.70;;;;;;;-1.80;91.54;98096.41;4964830;28;20640;-76
2020/12/26 02:41:09;;;;;;;12.55;4.97;;;;;;;-1.83;91.67;98098.44;4961971;28;20237;-76
2020/12/26 02:43:35;;;;;;;8.80;4.63;;;;;;;-1.83;92.29;98106.91;4959965;28;20114;-76
2020/12/26 02:46:01;;;;;;;11.65;5.18;;;;;;;-1.88;92.52;98096.31;4933225;29;20489;-76
2020/12/26 02:48:27;;;;;;;9.45;4.85;;;;;;;-1.85;92.63;98090.13;4958373;28;20027;-76
2020/12/26 02:50:54;;;;;;;11.80;5.93;;;;;;;-1.79;92.65;98100.56;4937507;29;20035;-76
2020/12/26 02:53:20;;;;;;;15.50;5.95;;;;;;;-1.79;92.93;98094.66;4932724;29;20038;-76
2020/12/26 02:55:46;;;;;;;8.95;4.85;;;;;;;-1.76;92.31;98087.50;4961025;28;20498;-76
2020/12/26 02:58:12;;;;;;;15.93;6.53;;;;;;;-1.75;92.66;98103.63;4914923;29;20398;-76
2020/12/26 03:00:38;;;;;;;10.10;5.43;;;;;;;-1.69;92.54;98105.63;4948282;29;20466;-76
2020/12/26 03:03:04;;;;;;;14.15;6.13;;;;;;;-1.67;93.22;98092.72;4928164;29;20486;-76
2020/12/26 03:05:30;;;;;;;12.18;5.30;;;;;;;-1.65;92.26;98095.91;4932113;29;20066;-76
2020/12/26 03:07:55;;;;;;;10.55;5.38;;;;;;;-1.64;92.74;98083.03;4935840;29;20035;-76
2020/12/26 03:10:21;;;;;;;13.02;5.72;;;;;;;-1.66;92.54;98079.81;4964099;28;20162;-77
2020/12/26 03:12:47;;;;;;;12.68;5.40;;;;;;;-1.61;92.50;98084.47;4948927;28;20482;-76
2020/12/26 03:15:13;;;;;;;9.55;4.65;;;;;;;-1.62;93.15;98081.13;4940282;29;20135;-76
2020/12/26 03:17:40;;;;;;;14.05;5.70;;;;;;;-1.55;93.20;98082.13;4949103;29;20563;-76
2020/12/26 03:20:06;;;;;;;9.27;4.32;;;;;;;-1.53;93.88;98089.66;4960423;28;20036;-76
2020/12/26 03:22:32;;;;;;;9.52;5.03;;;;;;;-1.53;92.99;98079.44;4930063;29;20058;-76
2020/12/26 03:24:58;;;;;;;11.93;4.88;;;;;;;-1.56;92.06;98074.63;4964301;28;20043;-76
2020/12/26 03:27:24;;;;;;;9.45;4.65;;;;;;;-1.57;92.40;98073.81;4947547;29;20167;-76
2020/12/26 03:29:51;;;;;;;7.68;3.67;;;;;;;-1.60;91.66;98079.22;4918193;29;20114;-76
2020/12/26 03:32:17;;;;;;;11.88;4.50;;;;;;;-1.62;91.49;98085.44;4933137;29;20031;-76
2020/12/26 03:34:43;;;;;;;8.65;4.80;;;;;;;-1.65;91.33;98085.72;4929027;29;20040;-76
2020/12/26 03:37:09;;;;;;;8.10;4.07;;;;;;;-1.60;91.51;98080.97;4935854;29;20043;-76
2020/12/26 03:39:37;;;;;;;11.25;4.72;;;;;;;-1.69;92.82;98082.66;4947889;29;20114;-76
2020/12/26 03:42:05;;;;;;;9.68;4.72;;;;;;;-1.66;92.35;98094.31;4953333;28;20031;-76
2020/12/26 03:44:31;;;;;;;7.97;4.20;;;;;;;-1.65;92.85;98089.06;4951638;28;20035;-77
2020/12/26 03:46:57;;;;;;;7.90;4.18;;;;;;;-1.61;93.09;98097.22;4948214;29;20039;-76
2020/12/26 03:49:24;;;;;;;8.07;4.38;;;;;;;-1.61;92.46;98102.34;4931840;29;20042;-77
2020/12/26 03:51:50;;;;;;;9.65;4.00;;;;;;;-1.61;92.61;98107.44;4937065;29;20043;-77
2020/12/26 03:54:16;;;;;;;9.95;4.57;;;;;;;-1.61;92.69;98100.59;4963622;28;20531;-76
2020/12/26 03:56:43;;;;;;;7.97;4.40;;;;;;;-1.60;92.55;98102.19;4952622;28;20282;-77
2020/12/26 03:59:09;;;;;;;9.25;4.55;;;;;;;-1.59;92.31;98090.25;4924908;29;20040;-76
2020/12/26 04:01:36;;;;;;;8.07;3.65;;;;;;;-1.48;92.61;98092.59;4951803;28;20217;-76
2020/12/26 04:04:02;;;;;;;10.35;4.35;;;;;;;-1.52;92.61;98092.06;4960450;28;20121;-76
2020/12/26 04:06:28;;;;;;;9.95;3.70;;;;;;;-1.37;92.57;98096.66;4923669;29;20314;-76
2020/12/26 04:08:54;;;;;;;11.00;5.10;;;;;;;-1.38;92.79;98093.31;4944739;29;20399;-76
2020/12/26 04:11:19;;;;;;;8.77;4.30;;;;;;;-1.35;92.34;98095.59;4912134;29;20035;-75
2020/12/26 04:13:45;;;;;;;9.35;4.35;;;;;;;-1.31;92.05;98093.53;4913829;29;20031;-76
2020/12/26 04:16:12;;;;;;;8.35;4.50;;;;;;;-1.37;92.05;98092.38;4947749;29;20031;-77
2020/12/26 04:18:39;;;;;;;8.77;4.82;;;;;;;-1.27;91.32;98086.38;4930058;29;20031;-76
2020/12/26 04:21:05;;;;;;;8.43;3.85;;;;;;;-1.19;90.58;98094.13;4926088;29;20090;-76
2020/12/26 04:23:32;;;;;;;9.93;4.93;;;;;;;-1.26;90.62;98090.56;4933303;29;20031;-76
2020/12/26 04:25:58;;;;;;;7.30;3.65;;;;;;;-1.33;90.84;98098.00;4959842;28;20032;-76
2020/12/26 04:28:24;;;;;;;7.95;4.38;;;;;;;-1.36;91.72;98086.31;4926757;29;20091;-76
2020/12/26 04:30:49;;;;;;;9.32;4.47;;;;;;;-1.34;91.62;98088.72;4927926;29;20039;-76
2020/12/26 04:33:15;;;;;;;7.20;4.10;;;;;;;-1.21;91.46;98083.25;4949025;29;20360;-76
2020/12/26 04:35:40;;;;;;;10.57;4.80;;;;;;;-1.20;91.21;98084.84;4965018;28;20035;-76
2020/12/26 04:38:07;;;;;;;9.35;3.90;;;;;;;-1.16;91.41;98083.63;4950180;29;20036;-76
2020/12/26 04:40:33;;;;;;;8.77;4.10;;;;;;;-1.06;91.47;98076.69;4929676;29;20038;-75
2020/12/26 04:42:59;;;;;;;8.30;4.13;;;;;;;-1.10;91.02;98070.25;4929956;29;20402;-77
2020/12/26 04:45:25;;;;;;;7.22;4.40;;;;;;;-1.01;90.75;98074.47;4964523;28;20031;-76
2020/12/26 04:47:58;;;;;;;8.88;4.72;;;;;;;-1.13;90.92;98081.56;4964739;28;20462;-76
2020/12/26 04:50:27;;;;;;;9.48;4.47;;;;;;;-1.12;91.23;98072.16;4964662;28;20673;-76
2020/12/26 04:52:58;;;;;;;9.70;4.55;;;;;;;-1.22;90.85;98074.78;4965148;28;20027;-77
2020/12/26 04:55:33;;;;;;;11.43;5.38;;;;;;;-1.28;92.58;98077.13;4935581;29;20019;-76
2020/12/26 04:58:05;;;;;;;11.30;4.10;;;;;;;-1.22;90.98;98076.53;4918006;29;20553;-76
2020/12/26 05:00:32;;;;;;;9.95;4.20;;;;;;;-1.13;90.61;98083.34;4946141;29;20466;-76
2020/12/26 05:03:02;;;;;;;9.23;4.05;;;;;;;-1.21;90.66;98083.25;4936567;29;20118;-77
2020/12/26 05:05:28;;;;;;;9.35;4.25;;;;;;;-1.24;90.60;98086.09;4951820;28;20070;-77
2020/12/26 05:07:54;;;;;;;8.77;4.45;;;;;;;-1.36;90.93;98081.19;4968571;28;20065;-77
2020/12/26 05:10:19;;;;;;;9.68;4.93;;;;;;;-1.34;91.35;98099.75;4951837;29;20067;-77
2020/12/26 05:12:45;;;;;;;8.75;4.32;;;;;;;-1.38;91.42;98095.88;4952931;29;20031;-76
2020/12/26 05:15:10;;;;;;;8.50;4.38;;;;;;;-1.44;91.61;98093.09;4936430;29;20035;-77
2020/12/26 05:17:37;;;;;;;9.93;4.88;;;;;;;-1.38;91.34;98097.63;4953368;29;20046;-76
2020/12/26 05:20:02;;;;;;;9.32;4.57;;;;;;;-1.36;91.56;98088.88;4967939;28;20039;-77
2020/12/26 05:22:28;;;;;;;10.68;4.55;;;;;;;-1.29;91.72;98086.53;4936686;29;20520;-77
2020/12/26 05:25:04;;;;;;;10.75;4.82;;;;;;;-1.18;91.44;98086.31;4953350;29;20035;-76
2020/12/26 05:27:30;;;;;;;9.48;4.70;;;;;;;-1.13;91.02;98081.56;4953356;29;20027;-76
2020/12/26 05:29:56;;;;;;;8.32;4.32;;;;;;;-1.14;90.88;98089.38;4949332;29;20035;-76
2020/12/26 05:32:21;;;;;;;10.77;5.28;;;;;;;-1.28;91.76;98072.03;4952079;28;20471;-76
2020/12/26 05:34:47;;;;;;;9.50;4.70;;;;;;;-1.30;92.58;98076.47;4952079;29;20036;-77
2020/12/26 05:37:16;;;;;;;10.27;4.80;;;;;;;-1.13;92.08;98075.66;4953438;29;20046;-76
2020/12/26 05:39:42;;;;;;;10.88;4.70;;;;;;;-1.17;92.15;98069.22;4951325;29;20031;-76
2020/12/26 05:42:07;;;;;;;9.90;4.32;;;;;;;-1.19;91.65;98071.13;4945475;29;20422;-76
2020/12/26 05:44:35;;;;;;;9.23;4.40;;;;;;;-1.09;91.46;98071.84;4967649;28;20042;-76
2020/12/26 05:47:03;;;;;;;10.27;4.40;;;;;;;-1.04;91.15;98079.09;4947065;29;20799;-77
2020/12/26 05:49:34;;;;;;;9.10;4.38;;;;;;;-1.09;90.88;98078.72;4953413;29;20027;-76
2020/12/26 05:52:11;;;;;;;12.00;5.53;;;;;;;-1.13;91.71;98085.88;4967898;28;20483;-76
2020/12/26 05:54:48;;;;;;;11.15;5.32;;;;;;;-1.15;91.86;98087.75;4935805;29;20023;-76
2020/12/26 05:57:15;;;;;;;10.77;5.30;;;;;;;-1.18;91.36;98090.63;4920643;29;20032;-76
2020/12/26 05:59:55;;;;;;;12.32;5.80;;;;;;;-1.24;91.29;98081.78;4946289;29;20055;-76
2020/12/26 06:02:26;;;;;;;13.05;5.32;;;;;;;-1.13;91.99;98091.78;4923108;29;20027;-76
2020/12/26 06:05:03;;;;;;;9.73;4.88;;;;;;;-1.16;91.91;98092.09;4948583;28;20031;-76
2020/12/26 06:07:36;;;;;;;10.70;5.75;;;;;;;-1.20;91.60;98097.63;4918291;29;20062;-76
2020/12/26 06:10:07;;;;;;;11.63;5.63;;;;;;;-1.19;91.99;98086.47;4934314;29;20039;-77
2020/12/26 06:12:33;;;;;;;13.60;6.55;;;;;;;-1.16;91.58;98096.41;4965806;28;20098;-77
2020/12/26 06:15:00;;;;;;;13.23;6.75;;;;;;;-1.24;91.86;98093.78;4934304;29;20028;-77
2020/12/26 06:17:33;;;;;;;12.63;6.03;;;;;;;-1.12;91.58;98095.16;4951643;29;20047;-77
2020/12/26 06:20:08;;;;;;;15.82;6.93;;;;;;;-1.07;91.19;98104.94;4966028;28;20035;-76
2020/12/26 06:22:46;;;;;;;10.25;5.20;;;;;;;-1.14;91.70;98095.28;4944848;29;20110;-76
2020/12/26 06:25:29;;;;;;;11.80;5.18;;;;;;;-1.11;92.01;98101.06;4966151;28;20042;-76
2020/12/26 06:28:00;;;;;;;11.98;5.10;;;;;;;-1.02;90.73;98093.31;4956229;28;20061;-77
2020/12/26 06:30:27;;;;;;;10.52;4.88;;;;;;;-0.91;90.93;98099.16;4946917;29;20038;-77
2020/12/26 06:32:55;;;;;;;10.20;5.95;;;;;;;-1.00;90.48;98096.53;4966440;28;20023;-77
2020/12/26 06:35:20;;;;;;;9.43;5.10;;;;;;;-0.89;90.14;98098.06;4951544;29;20023;-76
2020/12/26 06:37:48;;;;;;;15.70;5.95;;;;;;;-0.95;90.80;98088.41;4960292;28;20489;-76
2020/12/26 06:40:23;;;;;;;11.80;5.95;;;;;;;-1.00;90.83;98088.06;4934554;29;20365;-77
2020/12/26 06:42:51;;;;;;;12.60;6.30;;;;;;;-1.00;91.25;98075.28;4951071;29;20050;-76
2020/12/26 06:45:34;;;;;;;12.00;6.05;;;;;;;-1.00;91.20;98081.19;4914345;29;20050;-76
2020/12/26 06:48:00;;;;;;;9.57;5.80;;;;;;;-0.93;91.30;98078.84;4933131;29;20393;-76
2020/12/26 06:50:28;;;;;;;10.90;5.68;;;;;;;-1.02;91.11;98070.31;4966767;28;20023;-77
2020/12/26 06:52:54;;;;;;;11.05;5.63;;;;;;;-0.98;90.89;98073.38;4952483;29;20050;-77
2020/12/26 06:55:42;;;;;;;10.73;5.22;;;;;;;-1.02;90.96;98064.41;4950561;29;20552;-77
2020/12/26 06:58:08;;;;;;;10.65;5.40;;;;;;;-0.96;90.99;98069.72;4915746;29;20039;-77
2020/12/26 07:00:34;;;;;;;11.45;5.72;;;;;;;-0.93;91.16;98068.63;4937077;29;20049;-77
2020/12/26 07:03:16;;;;;;;11.88;6.20;;;;;;;-0.88;90.22;98080.97;4950882;29;20523;-77
2020/12/26 07:05:42;;;;;;;12.88;5.72;;;;;;;-0.90;90.04;98070.88;4965901;28;20428;-77
2020/12/26 07:08:20;;;;;;;14.00;5.72;;;;;;;-1.14;90.81;98063.84;4966615;28;20031;-77
2020/12/26 07:10:45;;;;;;;16.23;6.45;;;;;;;-1.14;91.27;98061.28;4965910;28;20038;-77
2020/12/26 07:13:10;;;;;;;11.13;6.03;;;;;;;-1.11;91.49;98060.16;4959527;28;20036;-77
2020/12/26 07:15:37;;;;;;;12.48;7.25;;;;;;;-1.05;91.37;98072.38;4966021;28;20027;-77
2020/12/26 07:18:21;;;;;;;15.75;6.57;;;;;;;-1.06;91.31;98074.13;4934571;29;20042;-77
2020/12/26 07:20:49;;;;;;;12.23;6.68;;;;;;;-1.04;91.39;98069.66;4966368;28;20030;-77
2020/12/26 07:23:15;;;;;;;11.13;6.10;;;;;;;-1.11;91.31;98070.38;4965276;28;20039;-77
2020/12/26 07:25:40;;;;;;;14.52;6.40;;;;;;;-1.08;91.23;98082.88;4909296;29;20028;-77
2020/12/26 07:28:06;;;;;;;15.40;6.88;;;;;;;-0.95;91.46;98076.44;4948068;29;20035;-77
2020/12/26 07:30:36;;;;;;;16.73;7.88;;;;;;;-0.99;91.48;98076.91;4947918;29;20043;-77
2020/12/26 07:33:02;;;;;;;16.23;8.48;;;;;;;-1.01;91.18;98076.22;4959410;28;20486;-76
2020/12/26 07:35:32;;;;;;;15.23;8.07;;;;;;;-0.93;91.13;98085.72;4963204;28;20037;-77
2020/12/26 07:38:04;;;;;;;14.93;7.40;;;;;;;-0.90;91.28;98078.56;4951420;29;20027;-77
2020/12/26 07:40:30;;;;;;;17.67;8.05;;;;;;;-0.86;91.13;98076.50;4933440;29;20169;-77
2020/12/26 07:42:59;;;;;;;19.40;7.93;;;;;;;-0.86;91.08;98079.06;4966035;28;20054;-77
2020/12/26 07:45:28;;;;;;;16.48;7.30;;;;;;;-0.83;91.22;98079.56;4944950;29;20374;-76
2020/12/26 07:47:55;;;;;;;16.40;7.40;;;;;;;-0.71;91.19;98085.22;4964819;28;20046;-77
2020/12/26 07:50:30;;;;;;;18.60;7.40;;;;;;;-0.77;90.83;98093.53;4933956;29;20419;-77
2020/12/26 07:52:57;;;;;;;;;;;;;;;-0.86;91.21;98095.19;4966530;28;20035;-76
2020/12/26 07:55:26;;;;;;;16.85;7.75;;;;;;;-0.74;90.85;98090.63;4965736;28;19918;-76
2020/12/26 07:58:06;;;;;;;18.05;7.60;;;;;;;-0.73;90.89;98107.59;4945469;29;20204;-76
2020/12/26 08:00:34;;;;;;;16.90;7.72;;;;;;;-0.72;90.46;98106.66;4928282;29;20042;-77
2020/12/26 08:03:01;;;;;;;17.38;8.95;;;;;;;-0.70;90.36;98114.97;4918139;29;20034;-77
2020/12/26 08:05:31;;;;;;;16.73;8.48;;;;;;;-0.81;90.71;98099.88;4933493;29;20491;-76
2020/12/26 08:07:57;;;;;;;19.85;8.57;;;;;;;-0.75;91.07;98106.94;4965949;28;20115;-77
2020/12/26 08:10:24;;;;;;;19.13;8.88;;;;;;;-0.75;90.87;98096.72;4933566;29;20102;-76
2020/12/26 08:12:58;;;;;;;22.77;11.70;;;;;;;-0.67;90.40;98094.22;4933824;29;20094;-76
2020/12/26 08:15:28;;;;;;;19.25;9.68;;;;;;;-0.66;90.51;98097.56;4961754;28;20474;-76
2020/12/26 08:17:59;;;;;;;16.83;8.13;;;;;;;-0.60;90.47;98099.53;4936612;29;20684;-77
2020/12/26 08:20:26;;;;;;;16.55;8.88;;;;;;;-0.55;90.12;98101.63;4934024;29;20073;-76
2020/12/26 08:22:53;;;;;;;20.27;9.18;;;;;;;-0.58;90.56;98100.19;4949244;29;20059;-77
2020/12/26 08:25:21;;;;;;;19.00;9.10;;;;;;;-0.67;90.41;98107.00;4933739;29;20031;-77
2020/12/26 08:27:47;;;;;;;17.08;9.07;;;;;;;-0.74;91.36;98095.75;4915179;29;20107;-77
2020/12/26 08:30:27;;;;;;;20.40;9.65;;;;;;;-0.68;91.29;98105.41;4967647;28;20390;-76
2020/12/26 08:33:07;;;;;;;20.30;9.73;;;;;;;-0.61;91.15;98096.16;4969858;28;20113;-77
2020/12/26 08:35:38;;;;;;;17.80;9.18;;;;;;;-0.57;90.51;98091.56;4969993;28;20381;-76
2020/12/26 08:38:08;;;;;;;27.58;10.75;;;;;;;-0.60;90.48;98095.22;4970001;28;20035;-77
2020/12/26 08:40:35;;;;;;;27.10;12.45;;;;;;;-0.59;90.71;98107.03;4969258;28;20031;-76
2020/12/26 08:43:12;;;;;;;20.85;9.68;;;;;;;-0.55;89.83;98120.34;4969272;28;20386;-76
2020/12/26 08:45:38;;;;;;;19.85;8.82;;;;;;;-0.45;89.87;98110.81;4969272;28;20111;-76
2020/12/26 08:48:18;;;;;;;18.70;8.63;;;;;;;-0.46;89.86;98118.66;4957246;28;20110;-76
2020/12/26 08:50:56;;;;;;;24.27;9.88;;;;;;;-0.51;89.55;98131.09;4947396;29;20491;-76
2020/12/26 08:53:23;;;;;;;19.15;9.50;;;;;;;-0.45;89.95;98121.03;4970135;28;20023;-77
2020/12/26 08:55:50;;;;;;;15.50;8.75;;;;;;;-0.42;89.86;98127.63;4965699;28;20028;-77
2020/12/26 08:58:24;;;;;;;18.33;9.68;;;;;;;-0.46;89.62;98128.91;4951956;29;20122;-77
2020/12/26 09:00:50;;;;;;;20.05;9.20;;;;;;;-0.47;89.23;98122.16;4948199;29;20093;-76
2020/12/26 09:03:21;;;;;;;20.95;10.05;;;;;;;-0.47;89.85;98133.19;4937600;29;20422;-76
2020/12/26 09:05:47;;;;;;;22.10;10.23;;;;;;;-0.42;90.13;98130.97;4952918;28;20082;-77
2020/12/26 09:08:13;;;;;;;20.27;10.65;;;;;;;-0.39;89.34;98135.81;4969738;28;20085;-76
2020/12/26 09:10:39;;;;;;;19.20;9.27;;;;;;;-0.42;90.54;98145.53;4954439;29;20479;-76
2020/12/26 09:13:07;;;;;;;20.08;10.30;;;;;;;-0.46;90.57;98139.13;4929355;29;20031;-77
2020/12/26 09:15:49;;;;;;;24.10;11.65;;;;;;;-0.47;90.19;98142.63;4925392;29;20027;-76
2020/12/26 09:18:39;;;;;;;19.95;9.25;;;;;;;-0.43;90.57;98141.34;4941505;29;20063;-76
2020/12/26 09:21:05;;;;;;;21.30;9.65;;;;;;;-0.30;89.59;98141.78;4923910;29;20040;-77
2020/12/26 09:23:38;;;;;;;21.95;11.00;;;;;;;-0.39;90.38;98145.25;4943246;29;20027;-77
2020/12/26 09:26:28;;;;;;;21.67;10.70;;;;;;;-0.41;90.76;98142.84;4925880;29;20375;-77
2020/12/26 09:28:59;;;;;;;23.77;10.57;;;;;;;-0.31;90.20;98152.97;4922762;29;20039;-77
2020/12/26 09:31:30;;;;;;;23.67;10.57;;;;;;;-0.31;90.07;98155.53;4926861;29;20028;-77
2020/12/26 09:33:58;;;;;;;23.40;12.10;;;;;;;-0.25;90.16;98151.56;4942662;29;20027;-76
2020/12/26 09:36:27;;;;;;;23.63;11.15;;;;;;;-0.26;89.91;98155.88;4912050;29;20023;-77
2020/12/26 09:38:54;;;;;;;25.67;9.98;;;;;;;-0.20;88.98;98157.03;4911486;29;20570;-77
2020/12/26 09:41:26;;;;;;;21.33;9.93;;;;;;;-0.26;89.47;98148.22;4911193;29;20063;-76
2020/12/26 09:43:53;;;;;;;18.05;10.63;;;;;;;-0.28;90.27;98147.53;4942057;29;20051;-77
2020/12/26 09:46:20;;;;;;;21.65;11.32;;;;;;;-0.24;90.14;98156.53;4935696;29;20043;-76
2020/12/26 09:48:47;;;;;;;28.10;14.32;;;;;;;-0.30;90.80;98162.25;4932168;29;20035;-77
2020/12/26 09:51:18;;;;;;;26.95;12.43;;;;;;;-0.28;90.45;98146.75;4933002;29;20023;-77
2020/12/26 09:53:44;;;;;;;22.45;12.40;;;;;;;-0.23;90.71;98157.31;4953801;29;20091;-77
2020/12/26 09:56:11;;;;;;;22.00;11.23;;;;;;;-0.32;90.54;98148.00;4962278;28;20024;-76
2020/12/26 09:58:42;;;;;;;22.88;11.23;;;;;;;-0.24;90.25;98160.81;4933753;29;20032;-77
2020/12/26 10:01:11;;;;;;;23.83;11.65;;;;;;;-0.25;90.52;98164.34;4940723;29;20093;-77
2020/12/26 10:03:36;;;;;;;22.38;11.70;;;;;;;-0.22;90.53;98161.50;4925763;29;20495;-77
2020/12/26 10:06:02;;;;;;;26.92;11.23;;;;;;;-0.22;90.09;98159.75;4933224;28;20052;-77
2020/12/26 10:08:28;;;;;;;23.40;11.65;;;;;;;-0.14;89.88;98161.53;4933690;29;20172;-76
2020/12/26 10:10:57;;;;;;;21.17;10.48;;;;;;;-0.22;90.27;98146.16;4933085;29;20031;-77
2020/12/26 10:13:23;;;;;;;24.92;11.20;;;;;;;-0.24;90.80;98132.69;4943982;29;20027;-77
2020/12/26 10:15:55;;;;;;;23.67;10.77;;;;;;;-0.15;90.68;98138.66;4940525;29;20031;-76
2020/12/26 10:18:21;;;;;;;24.40;12.43;;;;;;;-0.17;90.76;98135.44;4963691;28;20401;-77
2020/12/26 10:20:47;;;;;;;26.80;12.80;;;;;;;-0.16;90.39;98145.53;4949836;29;20047;-76
2020/12/26 10:23:13;;;;;;;22.35;11.63;;;;;;;-0.07;89.72;98149.75;4936817;29;20035;-76
2020/12/26 10:25:39;;;;;;;24.85;11.30;;;;;;;-0.02;88.92;98144.16;4927462;29;20051;-77
2020/12/26 10:28:05;;;;;;;21.92;11.05;;;;;;;-0.08;89.67;98126.88;4939481;29;20035;-77
2020/12/26 10:30:31;;;;;;;23.20;11.85;;;;;;;-0.20;89.77;98124.56;4959729;28;20475;-77
2020/12/26 10:32:57;;;;;;;23.73;11.75;;;;;;;-0.18;90.23;98119.28;4968030;28;20264;-77
2020/12/26 10:35:23;;;;;;;25.75;11.93;;;;;;;-0.19;90.26;98115.09;4952178;29;20930;-77
2020/12/26 10:37:48;;;;;;;23.85;11.15;;;;;;;-0.24;90.82;98109.66;4925028;29;20039;-78
2020/12/26 10:40:14;;;;;;;20.73;9.70;;;;;;;-0.30;90.70;98113.63;4927528;29;20430;-77
2020/12/26 10:42:40;;;;;;;26.05;11.70;;;;;;;-0.25;90.91;98101.16;4925647;29;20031;-77
2020/12/26 10:45:06;;;;;;;28.05;12.13;;;;;;;-0.22;90.10;98105.19;4926907;29;20043;-77
2020/12/26 10:47:32;;;;;;;22.15;10.48;;;;;;;-0.12;89.54;98110.19;4926874;29;20425;-77
2020/12/26 10:49:57;;;;;;;22.10;10.88;;;;;;;-0.09;90.06;98107.31;4952688;29;20039;-77
2020/12/26 10:52:23;;;;;;;27.20;12.38;;;;;;;-0.21;90.78;98097.38;4950928;28;20031;-77
2020/12/26 10:54:49;;;;;;;26.10;11.35;;;;;;;-0.14;90.53;98101.88;4967698;28;20035;-77
2020/12/26 10:57:15;;;;;;;23.27;12.27;;;;;;;-0.16;90.38;98093.53;4949779;29;20039;-76
2020/12/26 10:59:41;;;;;;;25.42;10.93;;;;;;;-0.10;89.99;98090.38;4957708;28;20439;-77
2020/12/26 11:02:07;;;;;;;20.52;11.25;;;;;;;-0.02;90.15;98103.19;4951099;29;20035;-76
2020/12/26 11:04:33;;;;;;;26.27;12.05;;;;;;;-0.08;90.00;98093.59;4967245;28;20114;-77
2020/12/26 11:06:59;;;;;;;23.48;12.48;;;;;;;-0.04;89.94;98093.09;4951440;29;20046;-77
2020/12/26 11:09:25;;;;;;;29.58;13.07;;;;;;;0.02;90.11;98091.72;4967459;28;20035;-76
2020/12/26 11:11:52;;;;;;;23.77;11.82;;;;;;;0.00;90.66;98088.50;4948116;28;20476;-77
2020/12/26 11:14:18;;;;;;;24.80;11.85;;;;;;;0.01;90.28;98084.19;4935936;29;20127;-77
2020/12/26 11:16:52;;;;;;;21.55;10.93;;;;;;;-0.07;90.15;98082.38;4922473;29;20043;-76
2020/12/26 11:19:19;;;;;;;24.55;12.02;;;;;;;-0.09;90.29;98071.50;4917923;29;20027;-77
2020/12/26 11:21:50;;;;;;;22.20;10.57;;;;;;;-0.10;90.42;98073.25;4919310;29;20031;-76
2020/12/26 11:24:15;;;;;;;25.42;11.38;;;;;;;-0.15;90.21;98077.25;4944108;29;20035;-77
2020/12/26 11:26:41;;;;;;;21.38;10.95;;;;;;;-0.16;90.64;98085.88;4944907;29;20106;-77
2020/12/26 11:29:07;;;;;;;24.50;10.95;;;;;;;-0.28;90.75;98085.31;4944670;29;20032;-76
2020/12/26 11:31:32;;;;;;;24.52;11.35;;;;;;;-0.23;91.04;98068.53;4965213;28;20031;-77